Time;durP1;ratioP1;P1;durP2;ratioP2;P2;SDS_P1;SDS_P2;PMS_P1;PMS_P2;Temp;Humidity;BMP_temperature;BMP_pressure;BME280_temperature;BME280_humidity;BME280_pressure;Samples;Min_cycle;Max_cycle;Signal;HPM_P1;HPM_P2
2024/03/30 00:00:38;;;;;;;;;;;;;;;15.65;58.63;100184.41;5032866;28;19917;-93
2024/03/30 00:03:04;;;;;;;;;;;;;;;15.63;58.68;100182.00;5026114;28;19917;-93
2024/03/30 00:05:29;;;;;;;;;;;;;;;15.64;58.76;100188.19;5027688;28;20282;-93
2024/03/30 00:07:54;;;;;;;;;;;;;;;15.63;58.95;100186.59;5029480;28;19921;-93
2024/03/30 00:10:19;;;;;;;;;;;;;;;15.61;58.99;100184.16;5028746;28;19924;-93
2024/03/30 00:12:48;;;;;;;;;;;;;;;15.61;59.27;100188.75;5028469;28;19925;-93
2024/03/30 00:15:13;;;;;;;;;;;;;;;15.58;58.99;100194.72;5028409;28;19913;-93
2024/03/30 00:17:39;;;;;;;;;;;;;;;15.55;59.29;100193.41;5029198;28;19928;-93
2024/03/30 00:20:04;;;;;;;;;;;;;;;15.53;59.23;100192.13;5031571;28;20393;-93
2024/03/30 00:22:30;;;;;;;;;;;;;;;15.51;59.41;100189.72;5034327;28;19923;-95
2024/03/30 00:24:55;;;;;;;;;;;;;;;15.52;59.29;100193.22;5030428;28;19968;-93
2024/03/30 00:27:20;;;;;;;;;;;;;;;15.52;59.92;100187.81;5028975;28;19922;-92
2024/03/30 00:29:46;;;;;;;;;;;;;;;15.51;59.63;100183.50;5031647;28;19921;-93
2024/03/30 00:32:11;;;;;;;;;;;;;;;15.52;59.92;100190.50;5029815;28;19999;-93
2024/03/30 00:34:36;;;;;;;;;;;;;;;15.52;59.89;100204.00;5032448;28;19952;-93
2024/03/30 00:37:03;;;;;;;;;;;;;;;15.52;60.17;100198.63;5034674;28;19983;-93
2024/03/30 00:39:28;;;;;;;;;;;;;;;15.52;60.21;100198.63;5032745;28;19917;-94
2024/03/30 00:41:53;;;;;;;;;;;;;;;15.50;60.24;100188.13;5033550;28;19940;-93
2024/03/30 00:44:19;;;;;;;;;;;;;;;15.49;60.43;100201.91;5033724;28;20436;-93
2024/03/30 00:46:44;;;;;;;;;;;;;;;15.44;60.49;100200.09;5023468;28;19929;-93
2024/03/30 00:49:09;;;;;;;;;;;;;;;15.43;60.56;100201.16;5034188;28;19971;-93
2024/03/30 00:51:35;;;;;;;;;;;;;;;15.43;60.59;100198.47;5031139;28;19921;-93
2024/03/30 00:54:00;;;;;;;;;;;;;;;15.43;60.71;100198.47;5028746;28;19944;-93
2024/03/30 00:56:29;;;;;;;;;;;;;;;15.43;60.58;100199.25;5029983;28;19925;-93
2024/03/30 00:58:54;;;;;;;;;;;;;;;15.43;60.67;100214.66;5034288;28;19963;-94
2024/03/30 01:01:21;;;;;;;;;;;;;;;15.42;60.88;100223.84;5029532;28;19956;-93
2024/03/30 01:03:46;;;;;;;;;;;;;;;15.39;60.87;100217.16;5027371;28;19924;-93
2024/03/30 01:06:11;;;;;;;;;;;;;;;15.37;60.78;100213.94;5030311;28;19921;-93
2024/03/30 01:08:36;;;;;;;;;;;;;;;15.36;60.70;100203.44;5036790;28;19967;-93
2024/03/30 01:11:02;;;;;;;;;;;;;;;15.32;60.83;100214.03;5030254;28;19966;-93
2024/03/30 01:13:27;;;;;;;;;;;;;;;15.28;61.02;100214.91;5032171;28;19917;-93
2024/03/30 01:15:53;;;;;;;;;;;;;;;15.22;60.93;100221.44;5030782;28;19932;-93
2024/03/30 01:18:19;;;;;;;;;;;;;;;15.18;60.96;100217.75;5031808;28;19924;-93
2024/03/30 01:20:44;;;;;;;;;;;;;;;15.11;61.02;100221.59;5031114;28;19940;-93
2024/03/30 01:23:09;;;;;;;;;;;;;;;15.06;61.11;100210.06;5024545;28;19922;-93
2024/03/30 01:25:35;;;;;;;;;;;;;;;15.01;61.13;100200.16;5028741;28;20007;-93
2024/03/30 01:28:02;;;;;;;;;;;;;;;14.97;61.40;100198.34;5032236;28;21098;-93
2024/03/30 01:30:27;;;;;;;;;;;;;;;14.93;61.91;100208.09;5029916;28;20504;-93
2024/03/30 01:32:52;;;;;;;;;;;;;;;14.87;62.26;100209.25;5029574;28;19921;-93
2024/03/30 01:35:18;;;;;;;;;;;;;;;14.81;62.10;100203.91;5028835;28;19921;-93
2024/03/30 01:37:43;;;;;;;;;;;;;;;14.79;61.92;100199.91;5032435;28;19917;-93
2024/03/30 01:40:08;;;;;;;;;;;;;;;14.77;61.90;100192.13;5032271;28;19923;-93
2024/03/30 01:42:35;;;;;;;;;;;;;;;14.76;61.90;100184.31;5031900;28;19921;-93
2024/03/30 01:45:00;;;;;;;;;;;;;;;14.74;61.96;100171.13;5046372;28;19960;-93
2024/03/30 01:47:26;;;;;;;;;;;;;;;14.71;62.16;100160.88;5029279;28;19964;-93
2024/03/30 01:49:56;;;;;;;;;;;;;;;14.67;62.40;100159.88;5030468;28;19943;-93
2024/03/30 01:52:23;;;;;;;;;;;;;;;14.62;62.68;100168.03;5027465;28;20839;-93
2024/03/30 01:54:49;;;;;;;;;;;;;;;14.59;62.51;100174.00;5029948;28;19921;-93
2024/03/30 01:57:15;;;;;;;;;;;;;;;14.57;62.67;100176.19;5027394;28;19924;-93
2024/03/30 01:59:40;;;;;;;;;;;;;;;14.56;62.45;100174.59;5032611;28;19927;-93
2024/03/30 02:02:08;;;;;;;;;;;;;;;14.55;62.70;100170.28;5029248;28;20413;-93
2024/03/30 02:04:34;;;;;;;;;;;;;;;14.53;62.24;100161.66;5026878;28;19947;-93
2024/03/30 02:06:59;;;;;;;;;;;;;;;14.50;62.62;100154.97;5027993;28;19925;-92
2024/03/30 02:09:24;;;;;;;;;;;;;;;14.49;62.69;100166.03;5029469;28;19921;-93
2024/03/30 02:11:50;;;;;;;;;;;;;;;14.46;62.64;100178.19;5031595;28;19952;-93
2024/03/30 02:14:15;;;;;;;;;;;;;;;14.43;62.95;100181.47;5026251;28;20401;-94
2024/03/30 02:16:40;;;;;;;;;;;;;;;14.42;62.80;100166.34;5030053;28;19920;-93
2024/03/30 02:19:08;;;;;;;;;;;;;;;14.42;62.67;100160.16;5028902;28;19963;-93
2024/03/30 02:21:33;;;;;;;;;;;;;;;14.38;62.87;100169.91;5034940;28;19928;-93
2024/03/30 02:23:59;;;;;;;;;;;;;;;14.34;62.92;100177.75;5029264;28;21544;-93
2024/03/30 02:26:24;;;;;;;;;;;;;;;14.30;62.76;100165.94;5029876;28;19925;-93
2024/03/30 02:28:50;;;;;;;;;;;;;;;14.27;62.91;100171.09;5031910;28;19917;-93
2024/03/30 02:31:16;;;;;;;;;;;;;;;14.21;62.87;100167.69;5037619;28;19916;-93
2024/03/30 02:33:42;;;;;;;;;;;;;;;14.19;63.30;100177.94;5025926;28;19948;-93
2024/03/30 02:36:07;;;;;;;;;;;;;;;14.14;63.36;100184.16;5032420;28;20007;-93
2024/03/30 02:38:32;;;;;;;;;;;;;;;14.06;63.33;100179.41;5032767;28;19917;-93
2024/03/30 02:40:58;;;;;;;;;;;;;;;14.03;63.29;100188.06;5034878;28;20035;-93
2024/03/30 02:43:23;;;;;;;;;;;;;;;13.99;63.80;100180.81;5023898;28;20369;-93
2024/03/30 02:45:48;;;;;;;;;;;;;;;13.96;63.78;100176.81;5023170;28;19917;-94
2024/03/30 02:48:14;;;;;;;;;;;;;;;13.94;63.38;100176.28;5028565;28;19925;-92
2024/03/30 02:50:39;;;;;;;;;;;;;;;13.93;63.24;100173.88;5028868;28;19978;-93
2024/03/30 02:53:04;;;;;;;;;;;;;;;13.91;63.17;100168.78;5034775;28;19917;-93
2024/03/30 02:55:29;;;;;;;;;;;;;;;13.86;63.09;100158.06;5028951;28;19921;-93
2024/03/30 02:57:55;;;;;;;;;;;;;;;13.83;63.11;100161.31;5030815;28;19921;-93
2024/03/30 03:00:20;;;;;;;;;;;;;;;13.80;63.37;100161.88;5030744;28;19920;-93
2024/03/30 03:02:45;;;;;;;;;;;;;;;13.76;63.19;100164.34;5031911;28;19921;-93
2024/03/30 03:05:10;;;;;;;;;;;;;;;13.72;63.48;100173.25;5030342;28;19968;-93
2024/03/30 03:07:36;;;;;;;;;;;;;;;13.67;63.28;100176.00;5030791;28;19928;-93
2024/03/30 03:10:01;;;;;;;;;;;;;;;13.64;63.83;100181.94;5029787;28;20575;-93
2024/03/30 03:12:27;;;;;;;;;;;;;;;13.61;64.21;100186.00;5028588;28;19921;-93
2024/03/30 03:14:52;;;;;;;;;;;;;;;13.61;64.26;100189.50;5025842;28;19970;-93
2024/03/30 03:17:17;;;;;;;;;;;;;;;13.58;64.18;100184.66;5025583;28;19921;-94
2024/03/30 03:19:42;;;;;;;;;;;;;;;13.54;63.92;100183.63;5023546;28;19926;-93
2024/03/30 03:22:07;;;;;;;;;;;;;;;13.52;63.77;100187.69;5030629;28;19926;-92
2024/03/30 03:24:33;;;;;;;;;;;;;;;13.47;63.85;100199.31;5029443;28;19921;-93
2024/03/30 03:26:58;;;;;;;;;;;;;;;13.42;63.84;100190.44;5030317;28;19925;-92
2024/03/30 03:29:23;;;;;;;;;;;;;;;13.38;64.02;100192.09;5025211;28;20381;-93
2024/03/30 03:31:49;;;;;;;;;;;;;;;13.33;63.73;100201.00;5028591;28;19917;-92
2024/03/30 03:34:14;;;;;;;;;;;;;;;13.31;63.74;100203.19;5025992;28;19917;-93
2024/03/30 03:36:39;;;;;;;;;;;;;;;13.28;63.76;100201.03;5031154;28;19921;-94
2024/03/30 03:39:04;;;;;;;;;;;;;;;13.24;64.23;100202.66;5028899;28;20451;-93
2024/03/30 03:41:29;;;;;;;;;;;;;;;13.17;63.99;100202.16;5029022;28;19925;-92
2024/03/30 03:43:54;;;;;;;;;;;;;;;13.14;64.01;100202.72;5028129;28;20035;-92
2024/03/30 03:46:20;;;;;;;;;;;;;;;13.08;63.99;100196.53;5028523;28;19929;-92
2024/03/30 03:48:45;;;;;;;;;;;;;;;13.05;64.13;100199.00;5025833;28;19921;-92
2024/03/30 03:51:13;;;;;;;;;;;;;;;13.00;64.18;100197.94;5030814;28;19967;-94
2024/03/30 03:53:38;;;;;;;;;;;;;;;12.97;63.95;100198.50;5024644;28;19924;-92
2024/03/30 03:56:03;;;;;;;;;;;;;;;12.93;63.53;100189.41;5029951;28;19917;-92
2024/03/30 03:58:28;;;;;;;;;;;;;;;12.89;63.67;100190.19;5033502;28;20814;-92
2024/03/30 04:00:53;;;;;;;;;;;;;;;12.86;64.13;100196.94;5030572;28;19924;-92
2024/03/30 04:03:18;;;;;;;;;;;;;;;12.82;64.10;100193.19;5027783;28;19917;-93
2024/03/30 04:05:44;;;;;;;;;;;;;;;12.79;63.71;100191.06;5034488;28;20129;-92
2024/03/30 04:08:09;;;;;;;;;;;;;;;12.75;63.65;100189.19;5031526;28;19940;-93
2024/03/30 04:10:34;;;;;;;;;;;;;;;12.72;63.47;100187.84;5034327;28;19924;-92
2024/03/30 04:12:59;;;;;;;;;;;;;;;12.68;63.63;100197.56;5037871;28;20127;-92
2024/03/30 04:15:24;;;;;;;;;;;;;;;12.64;63.44;100204.56;5035055;28;20698;-92
2024/03/30 04:17:50;;;;;;;;;;;;;;;12.59;63.96;100200.03;5034660;28;19921;-93
2024/03/30 04:20:15;;;;;;;;;;;;;;;12.54;64.94;100197.34;5033014;28;19921;-92
2024/03/30 04:22:40;;;;;;;;;;;;;;;12.47;65.29;100194.16;5035134;28;20511;-92
2024/03/30 04:25:06;;;;;;;;;;;;;;;12.45;65.15;100195.50;5026958;28;19944;-93
2024/03/30 04:27:32;;;;;;;;;;;;;;;12.44;64.77;100193.91;5031441;28;19959;-92
2024/03/30 04:29:57;;;;;;;;;;;;;;;12.44;64.71;100189.31;5031811;28;19928;-92
2024/03/30 04:32:22;;;;;;;;;;;;;;;12.40;64.38;100183.69;5030998;28;20365;-92
2024/03/30 04:34:47;;;;;;;;;;;;;;;12.38;64.60;100185.81;5027726;28;19936;-92
2024/03/30 04:37:13;;;;;;;;;;;;;;;12.34;65.17;100192.81;5035380;28;19943;-93
2024/03/30 04:39:40;;;;;;;;;;;;;;;12.30;64.98;100186.41;5030301;28;19961;-92
2024/03/30 04:42:05;;;;;;;;;;;;;;;12.28;65.66;100185.88;5024798;28;19917;-93
2024/03/30 04:44:31;;;;;;;;;;;;;;;12.26;65.83;100188.03;5031544;28;19932;-93
2024/03/30 04:46:57;;;;;;;;;;;;;;;12.23;65.73;100193.94;5034915;28;19967;-92
2024/03/30 04:49:22;;;;;;;;;;;;;;;12.23;65.31;100193.94;5031905;28;19917;-93
2024/03/30 04:51:47;;;;;;;;;;;;;;;12.22;65.64;100191.53;5026574;28;20051;-92
2024/03/30 04:54:13;;;;;;;;;;;;;;;12.23;65.49;100199.31;5027498;28;19921;-92
2024/03/30 04:56:38;;;;;;;;;;;;;;;12.23;65.48;100188.56;5029540;28;20308;-92
2024/03/30 04:59:03;;;;;;;;;;;;;;;12.22;65.31;100181.59;5035544;28;19921;-93
2024/03/30 05:01:28;;;;;;;;;;;;;;;12.21;65.09;100184.53;5033679;28;19917;-93
2024/03/30 05:03:53;;;;;;;;;;;;;;;12.18;65.06;100188.56;5037869;28;19921;-92
2024/03/30 05:06:19;;;;;;;;;;;;;;;12.16;65.32;100181.88;5030053;28;19917;-92
2024/03/30 05:08:44;;;;;;;;;;;;;;;12.13;65.28;100183.22;5024993;28;20336;-93
2024/03/30 05:11:09;;;;;;;;;;;;;;;12.10;65.60;100184.56;5034099;28;19921;-92
2024/03/30 05:13:35;;;;;;;;;;;;;;;12.07;66.54;100189.69;5030099;28;19956;-93
2024/03/30 05:16:00;;;;;;;;;;;;;;;12.05;65.94;100191.84;5026027;28;20016;-92
2024/03/30 05:18:27;;;;;;;;;;;;;;;12.03;66.00;100186.75;5044718;28;19924;-92
2024/03/30 05:20:58;;;;;;;;;;;;;;;12.04;65.96;100191.03;5028344;28;20555;-92
2024/03/30 05:23:30;;;;;;;;;;;;;;;12.04;65.84;100190.22;5032017;28;20006;-92
2024/03/30 05:25:56;;;;;;;;;;;;;;;12.03;66.13;100186.75;5028055;28;19982;-91
2024/03/30 05:28:23;;;;;;;;;;;;;;;12.03;66.65;100189.44;5031132;28;19925;-92
2024/03/30 05:30:49;;;;;;;;;;;;;;;12.02;66.26;100182.41;5029838;28;20013;-92
2024/03/30 05:33:15;;;;;;;;;;;;;;;12.04;66.55;100182.16;5036814;28;19976;-92
2024/03/30 05:35:40;;;;;;;;;;;;;;;12.06;67.52;100185.38;5027582;28;19964;-92
2024/03/30 05:38:06;;;;;;;;;;;;;;;12.04;68.00;100185.66;5026017;28;19921;-92
2024/03/30 05:40:32;;;;;;;;;;;;;;;12.08;67.87;100185.91;5031059;28;19987;-92
2024/03/30 05:43:01;;;;;;;;;;;;;;;12.13;67.58;100193.97;5027304;28;19968;-92
2024/03/30 05:45:26;;;;;;;;;;;;;;;12.18;67.90;100196.63;5032770;28;20010;-92
2024/03/30 05:47:52;;;;;;;;;;;;;;;12.24;68.04;100194.75;5025901;28;20009;-92
2024/03/30 05:50:18;;;;;;;;;;;;;;;12.30;67.89;100204.41;5022912;28;19913;-92
2024/03/30 05:52:43;;;;;;;;;;;;;;;12.34;67.93;100203.56;5030370;28;19917;-93
2024/03/30 05:55:08;;;;;;;;;;;;;;;12.37;67.90;100196.84;5026267;28;19918;-93
2024/03/30 05:57:33;;;;;;;;;;;;;;;12.38;68.82;100196.56;5028961;28;19921;-93
2024/03/30 05:59:59;;;;;;;;;;;;;;;12.40;68.81;100197.13;5030134;28;20039;-92
2024/03/30 06:02:24;;;;;;;;;;;;;;;12.44;68.41;100200.06;5029784;28;19944;-93
2024/03/30 06:04:50;;;;;;;;;;;;;;;12.49;68.58;100191.19;5032208;28;19924;-93
2024/03/30 06:07:15;;;;;;;;;;;;;;;12.53;67.67;100190.34;5036165;28;19929;-93
2024/03/30 06:09:40;;;;;;;;;;;;;;;12.59;67.50;100189.28;5034244;28;19921;-92
2024/03/30 06:12:06;;;;;;;;;;;;;;;12.67;66.47;100183.31;5039255;28;19921;-92
2024/03/30 06:14:31;;;;;;;;;;;;;;;12.74;67.17;100176.81;5033118;28;20026;-93
2024/03/30 06:16:59;;;;;;;;;;;;;;;12.80;66.54;100165.78;5030626;28;20431;-93
2024/03/30 06:19:24;;;;;;;;;;;;;;;12.86;66.99;100163.88;5029749;28;20673;-92
2024/03/30 06:21:50;;;;;;;;;;;;;;;12.93;66.61;100165.19;5029097;28;19921;-92
2024/03/30 06:24:15;;;;;;;;;;;;;;;13.01;66.69;100167.28;5030976;28;19917;-93
2024/03/30 06:26:40;;;;;;;;;;;;;;;13.07;68.48;100175.31;5030229;28;19952;-93
2024/03/30 06:29:05;;;;;;;;;;;;;;;13.16;69.10;100184.41;5031519;28;19917;-93
2024/03/30 06:31:30;;;;;;;;;;;;;;;13.25;67.82;100185.44;5030449;28;19922;-94
2024/03/30 06:33:56;;;;;;;;;;;;;;;13.33;67.84;100181.38;5025887;28;19917;-93
2024/03/30 06:36:21;;;;;;;;;;;;;;;13.39;67.55;100172.97;5032185;28;19917;-92
2024/03/30 06:38:46;;;;;;;;;;;;;;;13.44;67.91;100174.81;5031474;28;20366;-92
2024/03/30 06:43:55;;;;;;;;;;;;;;;13.54;68.06;100180.94;5027307;28;20400;-92
2024/03/30 06:46:20;;;;;;;;;;;;;;;13.61;68.81;100186.00;5029848;28;19918;-92
2024/03/30 06:48:45;;;;;;;;;;;;;;;13.68;69.03;100186.50;5030853;28;19925;-92
2024/03/30 06:51:10;;;;;;;;;;;;;;;13.74;69.31;100190.75;5035598;28;19917;-92
2024/03/30 06:53:36;;;;;;;;;;;;;;;13.81;69.86;100185.00;5030952;28;20350;-92
2024/03/30 06:56:01;;;;;;;;;;;;;;;13.89;69.89;100192.50;5032479;28;20012;-93
2024/03/30 06:58:26;;;;;;;;;;;;;;;13.99;70.01;100195.09;5030719;28;19959;-93
2024/03/30 07:00:51;;;;;;;;;;;;;;;14.07;70.32;100202.56;5022511;28;19917;-93
2024/03/30 07:03:17;;;;;;;;;;;;;;;14.15;70.42;100199.25;5031314;28;19921;-92
2024/03/30 07:05:42;;;;;;;;;;;;;;;14.25;70.41;100200.25;5030746;28;20358;-92
2024/03/30 07:08:07;;;;;;;;;;;;;;;14.33;70.47;100200.41;5028541;28;19970;-93
2024/03/30 07:10:33;;;;;;;;;;;;;;;14.41;70.01;100196.28;5024187;28;20358;-85
2024/03/30 07:12:58;;;;;;;;;;;;;;;14.50;70.44;100208.06;5023636;28;19925;-87
2024/03/30 07:15:23;;;;;;;;;;;;;;;14.59;70.27;100194.78;5026693;28;19917;-86
2024/03/30 07:17:49;;;;;;;;;;;;;;;14.65;70.22;100197.09;5030994;28;19917;-87
2024/03/30 07:20:14;;;;;;;;;;;;;;;14.74;70.38;100189.19;5032672;28;19960;-87
2024/03/30 07:22:39;;;;;;;;;;;;;;;14.83;70.71;100195.53;5026018;28;20373;-88
2024/03/30 07:25:05;;;;;;;;;;;;;;;14.93;70.02;100192.72;5030569;28;19921;-86
2024/03/30 07:27:30;;;;;;;;;;;;;;;15.03;70.29;100192.56;5027049;28;20035;-88
2024/03/30 07:29:55;;;;;;;;;;;;;;;15.12;70.10;100190.03;5026692;28;19924;-88
2024/03/30 07:32:21;;;;;;;;;;;;;;;15.22;70.07;100178.28;5023313;28;20335;-87
2024/03/30 07:34:47;;;;;;;;;;;;;;;15.30;70.30;100185.72;5024064;28;19921;-87
2024/03/30 07:37:12;;;;;;;;;;;;;;;15.37;69.66;100183.44;5024509;28;19917;-89
2024/03/30 07:39:38;;;;;;;;;;;;;;;15.43;69.83;100185.75;5030885;28;19919;-92
2024/03/30 07:42:04;;;;;;;;;;;;;;;15.52;69.79;100190.50;5026517;28;20369;-92
2024/03/30 07:44:30;;;;;;;;;;;;;;;15.62;70.03;100191.19;5030561;28;19932;-90
2024/03/30 07:46:55;;;;;;;;;;;;;;;15.73;70.10;100191.81;5031159;28;19929;-90
2024/03/30 07:49:20;;;;;;;;;;;;;;;15.86;69.50;100195.66;5032458;28;19925;-91
2024/03/30 07:51:46;;;;;;;;;;;;;;;15.98;69.35;100187.91;5028103;28;20373;-90
2024/03/30 07:54:11;;;;;;;;;;;;;;;16.09;69.43;100189.28;5031568;28;19913;-89
2024/03/30 07:56:38;;;;;;;;;;;;;;;16.23;69.08;100184.72;5029507;28;20254;-91
2024/03/30 07:59:03;;;;;;;;;;;;;;;16.36;68.15;100183.13;5028375;28;19922;-93
2024/03/30 08:01:29;;;;;;;;;;;;;;;16.44;67.72;100179.72;5029120;28;19921;-90
2024/03/30 08:03:54;;;;;;;;;;;;;;;16.55;67.45;100175.72;5029995;28;19917;-87
2024/03/30 08:06:19;;;;;;;;;;;;;;;16.63;67.11;100183.13;5028906;28;20443;-87
2024/03/30 08:08:45;;;;;;;;;;;;;;;16.71;66.57;100173.53;5026397;28;20016;-93
2024/03/30 08:11:10;;;;;;;;;;;;;;;16.79;66.47;100172.81;5026199;28;19967;-87
2024/03/30 08:13:35;;;;;;;;;;;;;;;16.89;66.07;100169.91;5026015;28;19925;-88
2024/03/30 08:16:00;;;;;;;;;;;;;;;16.99;66.11;100168.84;5026640;28;20591;-86
2024/03/30 08:18:25;;;;;;;;;;;;;;;17.07;65.37;100159.22;5026051;28;19956;-88
2024/03/30 08:20:51;;;;;;;;;;;;;;;17.18;65.00;100158.66;5023090;28;19932;-84
2024/03/30 08:23:16;;;;;;;;;;;;;;;17.29;64.74;100155.75;5025154;28;20518;-86
2024/03/30 08:25:41;;;;;;;;;;;;;;;17.43;64.62;100159.19;5022466;28;19929;-86
2024/03/30 08:28:07;;;;;;;;;;;;;;;17.57;64.13;100159.91;5021843;28;19922;-86
2024/03/30 08:30:32;;;;;;;;;;;;;;;17.68;63.90;100158.59;5020126;28;19928;-87
2024/03/30 08:32:59;;;;;;;;;;;;;;;17.82;63.56;100161.22;5020581;28;20513;-87
2024/03/30 08:35:25;;;;;;;;;;;;;;;17.95;63.09;100162.22;5024309;28;19960;-86
2024/03/30 08:37:50;;;;;;;;;;;;;;;18.08;63.02;100145.09;5018602;28;19925;-88
2024/03/30 08:40:15;;;;;;;;;;;;;;;18.24;62.24;100146.28;5025297;28;20277;-86
2024/03/30 08:42:40;;;;;;;;;;;;;;;18.37;62.46;100139.94;5024265;28;19921;-87
2024/03/30 08:45:06;;;;;;;;;;;;;;;18.51;61.65;100139.03;5028730;28;19924;-83
2024/03/30 08:47:32;;;;;;;;;;;;;;;18.62;62.09;100140.31;5025833;28;19999;-88
2024/03/30 08:49:57;;;;;;;;;;;;;;;18.74;61.64;100129.69;5026230;28;19921;-88
2024/03/30 08:52:24;;;;;;;;;;;;;;;18.86;61.63;100132.56;5026041;28;19944;-86
2024/03/30 08:54:49;;;;;;;;;;;;;;;18.97;60.95;100125.69;5022705;28;19917;-86
2024/03/30 08:57:14;;;;;;;;;;;;;;;19.08;61.20;100122.69;5023217;28;19928;-87
2024/03/30 08:59:40;;;;;;;;;;;;;;;19.18;60.96;100125.06;5023099;28;19939;-86
2024/03/30 09:02:05;;;;;;;;;;;;;;;19.29;59.86;100121.69;5024701;28;20400;-86
2024/03/30 09:04:30;;;;;;;;;;;;;;;19.38;60.21;100120.88;5023745;28;19925;-88
2024/03/30 09:06:55;;;;;;;;;;;;;;;19.51;60.27;100126.13;5023927;28;20019;-84
2024/03/30 09:09:20;;;;;;;;;;;;;;;19.61;60.07;100120.41;5024480;28;19921;-85
2024/03/30 09:11:45;;;;;;;;;;;;;;;19.74;59.62;100121.31;5026524;28;20000;-86
2024/03/30 09:14:11;;;;;;;;;;;;;;;19.87;59.41;100130.41;5026583;28;20681;-85
2024/03/30 09:16:36;;;;;;;;;;;;;;;19.98;59.29;100128.13;5023106;28;19932;-88
2024/03/30 09:19:01;;;;;;;;;;;;;;;20.07;58.75;100126.97;5023851;28;19925;-91
2024/03/30 09:21:26;;;;;;;;;;;;;;;20.17;58.46;100123.09;5025192;28;19924;-92
2024/03/30 09:23:52;;;;;;;;;;;;;;;20.31;58.77;100122.88;5026224;28;19972;-88
2024/03/30 09:26:17;;;;;;;;;;;;;;;20.48;58.77;100117.38;5028194;28;19967;-87
2024/03/30 09:28:42;;;;;;;;;;;;;;;20.65;58.07;100108.31;5022875;28;20405;-87
2024/03/30 09:31:07;;;;;;;;;;;;;;;20.73;57.71;100107.44;5018865;28;20004;-86
2024/03/30 09:33:32;;;;;;;;;;;;;;;20.84;57.83;100102.41;5016561;28;19922;-84
2024/03/30 09:35:59;;;;;;;;;;;;;;;20.92;57.87;100101.53;5022312;28;19927;-83
2024/03/30 09:38:24;;;;;;;;;;;;;;;21.06;57.91;100094.66;5021223;28;20389;-83
2024/03/30 09:40:54;;;;;;;;;;;;;;;21.23;57.85;100096.44;5019145;28;19975;-85
2024/03/30 09:43:19;;;;;;;;;;;;;;;21.41;57.47;100097.09;5019141;28;19913;-85
2024/03/30 09:45:45;;;;;;;;;;;;;;;21.57;57.20;100108.16;5023629;28;19921;-86
2024/03/30 09:48:12;;;;;;;;;;;;;;;21.69;57.18;100110.91;5023768;28;19975;-86
2024/03/30 09:50:38;;;;;;;;;;;;;;;21.81;56.46;100113.66;5021437;28;20012;-84
2024/03/30 09:53:06;;;;;;;;;;;;;;;21.91;56.20;100115.16;5023165;28;20013;-89
2024/03/30 09:55:31;;;;;;;;;;;;;;;22.05;56.23;100107.47;5021286;28;20723;-87
2024/03/30 09:57:57;;;;;;;;;;;;;;;22.19;56.13;100104.41;5023339;28;19967;-83
2024/03/30 10:00:22;;;;;;;;;;;;;;;22.30;55.39;100109.06;5022657;28;19914;-82
2024/03/30 10:02:47;;;;;;;;;;;;;;;22.44;55.51;100106.00;5022070;28;19920;-84
2024/03/30 10:05:13;;;;;;;;;;;;;;;22.56;54.82;100107.88;5023294;28;20036;-83
2024/03/30 10:07:47;;;;;;;;;;;;;;;22.63;54.39;100110.84;5021427;28;19928;-84
2024/03/30 10:10:14;;;;;;;;;;;;;;;22.73;54.76;100102.16;5023165;28;19927;-86
2024/03/30 10:12:53;;;;;;;;;;;;;;;22.78;53.96;100092.94;5023736;28;20523;-88
2024/03/30 10:15:19;;;;;;;;;;;;;;;22.87;54.27;100091.69;5022756;28;19946;-89
2024/03/30 10:17:44;;;;;;;;;;;;;;;23.01;54.52;100088.59;5024385;28;19921;-89
2024/03/30 10:20:09;;;;;;;;;;;;;;;23.16;54.02;100078.81;5024480;28;20012;-92
2024/03/30 10:22:35;;;;;;;;;;;;;;;23.31;54.25;100075.34;5028642;28;19925;-92
2024/03/30 10:25:00;;;;;;;;;;;;;;;23.48;54.07;100079.69;5026595;28;20373;-91
2024/03/30 10:27:25;;;;;;;;;;;;;;;23.66;53.80;100071.97;5025516;28;19924;-88
2024/03/30 10:29:51;;;;;;;;;;;;;;;23.78;52.79;100069.97;5029709;28;19917;-89
2024/03/30 10:32:16;;;;;;;;;;;;;;;23.92;53.04;100064.06;5028838;28;19925;-93
2024/03/30 10:34:41;;;;;;;;;;;;;;;24.08;52.99;100055.84;5031322;28;19917;-92
2024/03/30 10:37:07;;;;;;;;;;;;;;;24.23;52.91;100062.41;5028220;28;19933;-94
2024/03/30 10:39:32;;;;;;;;;;;;;;;24.38;52.79;100058.88;5025937;28;20392;-89
2024/03/30 10:41:57;;;;;;;;;;;;;;;24.51;51.36;100060.34;5029606;28;19917;-89
2024/03/30 10:44:29;;;;;;;;;;;;;;;24.61;51.91;100061.75;5028034;28;20000;-92
2024/03/30 10:46:57;;;;;;;;;;;;;;;24.69;51.10;100058.78;5026197;28;19921;-86
2024/03/30 10:49:24;;;;;;;;;;;;;;;24.78;50.91;100050.38;5022256;28;19917;-91
2024/03/30 10:51:52;;;;;;;;;;;;;;;24.85;50.45;100057.94;5024639;28;22516;-90
2024/03/30 10:54:20;;;;;;;;;;;;;;;24.92;49.68;100056.09;5023978;28;19922;-85
2024/03/30 10:56:52;;;;;;;;;;;;;;;24.99;49.24;100060.97;5023468;28;19917;-88
2024/03/30 10:59:18;;;;;;;;;;;;;;;25.04;49.05;100060.69;5022249;28;19925;-89
2024/03/30 11:01:44;;;;;;;;;;;;;;;25.16;48.64;100051.53;5023811;28;19925;-90
2024/03/30 11:04:11;;;;;;;;;;;;;;;25.24;48.72;100053.22;5019798;28;20299;-85
2024/03/30 11:06:37;;;;;;;;;;;;;;;25.33;48.39;100042.84;5021135;28;19925;-85
2024/03/30 11:09:04;;;;;;;;;;;;;;;25.43;47.92;100042.22;5021287;28;19928;-90
2024/03/30 11:11:29;;;;;;;;;;;;;;;25.55;47.72;100042.03;5016721;28;20492;-85
2024/03/30 11:13:54;;;;;;;;;;;;;;;25.67;48.17;100041.03;5017247;28;19978;-84
2024/03/30 11:16:20;;;;;;;;;;;;;;;25.79;47.28;100042.84;5018884;28;19921;-85
2024/03/30 11:18:51;;;;;;;;;;;;;;;25.89;47.68;100042.25;5017178;28;20000;-85
2024/03/30 11:21:26;;;;;;;;;;;;;;;25.96;46.92;100039.59;5020795;28;19917;-85
2024/03/30 11:23:56;;;;;;;;;;;;;;;26.05;47.29;100033.84;5021477;28;20385;-86
2024/03/30 11:26:22;;;;;;;;;;;;;;;26.18;46.92;100032.47;5017445;28;19932;-87
2024/03/30 11:28:47;;;;;;;;;;;;;;;26.28;46.31;100036.53;5017648;28;19925;-86
2024/03/30 11:31:21;;;;;;;;;;;;;;;26.37;45.95;100031.59;5018425;28;20274;-84
2024/03/30 11:33:46;;;;;;;;;;;;;;;26.46;45.32;100040.34;5035838;28;19925;-85
2024/03/30 11:36:22;;;;;;;;;;;;;;;26.54;45.22;100032.97;5016565;28;20074;-85
2024/03/30 11:38:51;;;;;;;;;;;;;;;26.53;44.82;100034.94;5019903;28;19921;-86
2024/03/30 11:41:17;;;;;;;;;;;;;;;26.53;43.86;100026.69;5019639;28;19918;-86
2024/03/30 11:43:51;;;;;;;;;;;;;;;26.61;44.73;100033.88;5022038;28;19928;-85
2024/03/30 11:46:17;;;;;;;;;;;;;;;26.74;44.69;100021.47;5016625;28;19918;-82
2024/03/30 11:48:43;;;;;;;;;;;;;;;26.87;43.93;100018.47;5020827;28;19968;-83
2024/03/30 11:51:14;;;;;;;;;;;;;;;26.92;43.28;100018.91;5017001;28;20007;-85
2024/03/30 11:53:39;;;;;;;;;;;;;;;26.95;42.53;100014.66;5015405;28;20081;-84
2024/03/30 11:56:05;;;;;;;;;;;;;;;26.96;42.51;100011.53;5013186;28;20480;-84
2024/03/30 11:58:30;;;;;;;;;;;;;;;27.03;43.15;100010.84;5017994;28;19921;-84
2024/03/30 12:01:00;;;;;;;;;;;;;;;27.09;42.49;100009.31;5020020;28;20591;-84
2024/03/30 12:03:26;;;;;;;;;;;;;;;27.15;42.39;100013.31;5018415;28;20332;-85
2024/03/30 12:05:53;;;;;;;;;;;;;;;27.27;43.19;100004.78;5017695;28;20374;-82
2024/03/30 12:08:20;;;;;;;;;;;;;;;27.40;42.86;100006.09;5015625;28;20000;-81
2024/03/30 12:10:50;;;;;;;;;;;;;;;27.51;41.88;99997.94;5013617;28;20496;-82
2024/03/30 12:13:19;;;;;;;;;;;;;;;27.63;41.92;99999.63;5017531;28;20012;-81
2024/03/30 12:15:44;;;;;;;;;;;;;;;27.67;41.95;99989.44;5017936;28;20030;-83
2024/03/30 12:18:09;;;;;;;;;;;;;;;27.64;41.13;99992.94;5021440;28;20600;-81
2024/03/30 12:20:35;;;;;;;;;;;;;;;27.61;40.63;99997.22;5021466;28;19917;-83
2024/03/30 12:23:00;;;;;;;;;;;;;;;27.63;40.65;99992.16;5018156;28;20016;-84
2024/03/30 12:25:26;;;;;;;;;;;;;;;27.69;40.81;99992.59;5018259;28;19917;-83
2024/03/30 12:27:51;;;;;;;;;;;;;;;27.78;41.18;99989.50;5019651;28;19932;-83
2024/03/30 12:30:16;;;;;;;;;;;;;;;27.91;40.44;99985.28;5021811;28;19921;-81
2024/03/30 12:32:41;;;;;;;;;;;;;;;28.00;40.21;99985.72;5019293;28;20516;-83